sensor_id;sensor_type;location;lat;lon;timestamp;P1;durP1;ratioP1;P2;durP2;ratioP2
60964;SDS011;46834;51.100;6.886;2022-08-25T00:01:44;2.45;;;1.30;;
60964;SDS011;46834;51.100;6.886;2022-08-25T00:04:20;5.82;;;1.40;;
60964;SDS011;46834;51.100;6.886;2022-08-25T00:06:47;1.73;;;1.25;;
60964;SDS011;46834;51.100;6.886;2022-08-25T00:09:15;1.95;;;1.30;;
60964;SDS011;46834;51.100;6.886;2022-08-25T00:11:44;1.95;;;1.50;;
60964;SDS011;46834;51.100;6.886;2022-08-25T00:14:14;1.92;;;1.20;;
60964;SDS011;46834;51.100;6.886;2022-08-25T00:16:47;1.88;;;1.20;;
60964;SDS011;46834;51.100;6.886;2022-08-25T00:19:14;3.92;;;1.75;;
60964;SDS011;46834;51.100;6.886;2022-08-25T00:21:44;1.58;;;1.27;;
60964;SDS011;46834;51.100;6.886;2022-08-25T00:24:11;4.07;;;1.35;;
60964;SDS011;46834;51.100;6.886;2022-08-25T00:26:40;2.08;;;1.40;;
60964;SDS011;46834;51.100;6.886;2022-08-25T00:29:09;2.65;;;1.45;;
60964;SDS011;46834;51.100;6.886;2022-08-25T00:31:36;5.63;;;1.35;;
60964;SDS011;46834;51.100;6.886;2022-08-25T00:34:03;4.22;;;1.45;;
60964;SDS011;46834;51.100;6.886;2022-08-25T00:36:36;4.03;;;1.50;;
60964;SDS011;46834;51.100;6.886;2022-08-25T00:39:03;2.85;;;1.45;;
60964;SDS011;46834;51.100;6.886;2022-08-25T00:41:31;2.17;;;1.30;;
60964;SDS011;46834;51.100;6.886;2022-08-25T00:43:59;3.85;;;1.35;;
60964;SDS011;46834;51.100;6.886;2022-08-25T00:46:32;1.92;;;1.30;;
60964;SDS011;46834;51.100;6.886;2022-08-25T00:49:04;2.25;;;1.45;;
60964;SDS011;46834;51.100;6.886;2022-08-25T00:51:43;2.28;;;1.52;;
60964;SDS011;46834;51.100;6.886;2022-08-25T00:54:23;4.13;;;1.52;;
60964;SDS011;46834;51.100;6.886;2022-08-25T00:56:56;3.28;;;1.33;;
60964;SDS011;46834;51.100;6.886;2022-08-25T00:59:24;2.08;;;1.17;;
60964;SDS011;46834;51.100;6.886;2022-08-25T01:01:51;2.17;;;1.42;;
60964;SDS011;46834;51.100;6.886;2022-08-25T01:04:18;2.15;;;1.30;;
60964;SDS011;46834;51.100;6.886;2022-08-25T01:06:46;1.70;;;1.13;;
60964;SDS011;46834;51.100;6.886;2022-08-25T01:09:13;2.35;;;1.50;;
60964;SDS011;46834;51.100;6.886;2022-08-25T01:11:41;2.55;;;1.20;;
60964;SDS011;46834;51.100;6.886;2022-08-25T01:14:10;2.00;;;1.30;;
60964;SDS011;46834;51.100;6.886;2022-08-25T01:16:40;1.77;;;1.30;;
60964;SDS011;46834;51.100;6.886;2022-08-25T01:19:08;3.65;;;1.80;;
60964;SDS011;46834;51.100;6.886;2022-08-25T01:21:47;2.08;;;1.50;;
60964;SDS011;46834;51.100;6.886;2022-08-25T01:24:27;1.92;;;1.35;;
60964;SDS011;46834;51.100;6.886;2022-08-25T01:27:02;2.75;;;1.20;;
60964;SDS011;46834;51.100;6.886;2022-08-25T01:29:29;2.22;;;1.48;;
60964;SDS011;46834;51.100;6.886;2022-08-25T01:31:57;4.50;;;2.03;;
60964;SDS011;46834;51.100;6.886;2022-08-25T01:34:29;2.83;;;1.60;;
60964;SDS011;46834;51.100;6.886;2022-08-25T01:36:57;2.63;;;1.40;;
60964;SDS011;46834;51.100;6.886;2022-08-25T01:39:26;2.20;;;1.45;;
60964;SDS011;46834;51.100;6.886;2022-08-25T01:41:58;2.60;;;1.45;;
60964;SDS011;46834;51.100;6.886;2022-08-25T01:44:26;3.90;;;1.50;;
60964;SDS011;46834;51.100;6.886;2022-08-25T01:46:53;2.05;;;1.30;;
60964;SDS011;46834;51.100;6.886;2022-08-25T01:49:19;1.27;;;1.17;;
60964;SDS011;46834;51.100;6.886;2022-08-25T01:51:47;1.88;;;1.20;;
60964;SDS011;46834;51.100;6.886;2022-08-25T01:54:40;2.53;;;1.13;;
60964;SDS011;46834;51.100;6.886;2022-08-25T01:57:06;2.58;;;1.23;;
60964;SDS011;46834;51.100;6.886;2022-08-25T01:59:32;1.52;;;1.15;;
60964;SDS011;46834;51.100;6.886;2022-08-25T02:01:57;2.35;;;1.30;;
60964;SDS011;46834;51.100;6.886;2022-08-25T02:04:23;1.52;;;1.00;;
60964;SDS011;46834;51.100;6.886;2022-08-25T02:06:50;1.98;;;1.20;;
60964;SDS011;46834;51.100;6.886;2022-08-25T02:09:16;3.00;;;1.30;;
60964;SDS011;46834;51.100;6.886;2022-08-25T02:11:43;1.30;;;1.17;;
60964;SDS011;46834;51.100;6.886;2022-08-25T02:14:11;1.27;;;0.93;;
60964;SDS011;46834;51.100;6.886;2022-08-25T02:16:39;1.50;;;1.10;;
60964;SDS011;46834;51.100;6.886;2022-08-25T02:19:10;1.60;;;1.23;;
60964;SDS011;46834;51.100;6.886;2022-08-25T02:21:36;1.83;;;1.10;;
60964;SDS011;46834;51.100;6.886;2022-08-25T02:24:03;1.80;;;1.40;;
60964;SDS011;46834;51.100;6.886;2022-08-25T02:26:30;3.72;;;1.75;;
60964;SDS011;46834;51.100;6.886;2022-08-25T02:28:56;1.85;;;1.40;;
60964;SDS011;46834;51.100;6.886;2022-08-25T02:31:23;3.30;;;1.40;;
60964;SDS011;46834;51.100;6.886;2022-08-25T02:33:50;2.78;;;1.13;;
60964;SDS011;46834;51.100;6.886;2022-08-25T02:36:17;1.83;;;1.30;;
60964;SDS011;46834;51.100;6.886;2022-08-25T02:38:43;2.70;;;1.50;;
60964;SDS011;46834;51.100;6.886;2022-08-25T02:41:14;1.50;;;1.27;;
60964;SDS011;46834;51.100;6.886;2022-08-25T02:43:49;2.67;;;1.27;;
60964;SDS011;46834;51.100;6.886;2022-08-25T02:46:16;2.03;;;1.15;;
60964;SDS011;46834;51.100;6.886;2022-08-25T02:48:44;3.25;;;1.30;;
60964;SDS011;46834;51.100;6.886;2022-08-25T02:51:12;1.95;;;1.15;;
60964;SDS011;46834;51.100;6.886;2022-08-25T02:53:39;1.67;;;1.35;;
60964;SDS011;46834;51.100;6.886;2022-08-25T02:56:10;2.20;;;1.10;;
60964;SDS011;46834;51.100;6.886;2022-08-25T02:58:38;1.63;;;1.20;;
60964;SDS011;46834;51.100;6.886;2022-08-25T03:01:05;3.72;;;1.50;;
60964;SDS011;46834;51.100;6.886;2022-08-25T03:03:35;3.83;;;1.25;;
60964;SDS011;46834;51.100;6.886;2022-08-25T03:06:04;3.33;;;1.35;;
60964;SDS011;46834;51.100;6.886;2022-08-25T03:08:33;1.60;;;1.30;;
60964;SDS011;46834;51.100;6.886;2022-08-25T03:11:00;2.42;;;1.35;;
60964;SDS011;46834;51.100;6.886;2022-08-25T03:13:26;2.00;;;1.55;;
60964;SDS011;46834;51.100;6.886;2022-08-25T03:15:51;3.05;;;1.27;;
60964;SDS011;46834;51.100;6.886;2022-08-25T03:18:18;1.88;;;1.23;;
60964;SDS011;46834;51.100;6.886;2022-08-25T03:20:44;3.45;;;1.38;;
60964;SDS011;46834;51.100;6.886;2022-08-25T03:23:10;1.52;;;1.30;;
60964;SDS011;46834;51.100;6.886;2022-08-25T03:25:38;1.70;;;1.50;;
60964;SDS011;46834;51.100;6.886;2022-08-25T03:28:23;1.63;;;1.15;;
60964;SDS011;46834;51.100;6.886;2022-08-25T03:30:50;1.92;;;1.40;;
60964;SDS011;46834;51.100;6.886;2022-08-25T03:33:17;3.67;;;1.23;;
60964;SDS011;46834;51.100;6.886;2022-08-25T03:35:43;4.40;;;1.48;;
60964;SDS011;46834;51.100;6.886;2022-08-25T03:38:10;3.20;;;1.33;;
60964;SDS011;46834;51.100;6.886;2022-08-25T03:40:36;1.80;;;1.33;;
60964;SDS011;46834;51.100;6.886;2022-08-25T03:43:02;2.15;;;1.60;;
60964;SDS011;46834;51.100;6.886;2022-08-25T03:45:28;2.10;;;1.42;;
60964;SDS011;46834;51.100;6.886;2022-08-25T03:47:54;2.35;;;1.60;;
60964;SDS011;46834;51.100;6.886;2022-08-25T03:50:21;2.42;;;1.20;;
60964;SDS011;46834;51.100;6.886;2022-08-25T03:52:54;2.50;;;1.33;;
60964;SDS011;46834;51.100;6.886;2022-08-25T03:55:22;3.55;;;1.60;;
60964;SDS011;46834;51.100;6.886;2022-08-25T03:57:49;1.50;;;1.40;;
60964;SDS011;46834;51.100;6.886;2022-08-25T04:00:18;1.80;;;1.30;;
60964;SDS011;46834;51.100;6.886;2022-08-25T04:02:47;2.35;;;1.70;;
60964;SDS011;46834;51.100;6.886;2022-08-25T04:05:13;3.65;;;1.60;;
60964;SDS011;46834;51.100;6.886;2022-08-25T04:07:39;2.20;;;1.40;;
60964;SDS011;46834;51.100;6.886;2022-08-25T04:10:06;3.00;;;1.50;;
60964;SDS011;46834;51.100;6.886;2022-08-25T04:12:34;2.05;;;1.50;;
60964;SDS011;46834;51.100;6.886;2022-08-25T04:15:01;2.45;;;1.50;;
60964;SDS011;46834;51.100;6.886;2022-08-25T04:17:32;3.10;;;1.10;;
60964;SDS011;46834;51.100;6.886;2022-08-25T04:20:03;1.88;;;1.50;;
60964;SDS011;46834;51.100;6.886;2022-08-25T04:22:34;1.50;;;1.40;;
60964;SDS011;46834;51.100;6.886;2022-08-25T04:25:01;2.30;;;1.80;;
60964;SDS011;46834;51.100;6.886;2022-08-25T04:27:28;2.20;;;1.60;;
60964;SDS011;46834;51.100;6.886;2022-08-25T04:29:54;3.72;;;1.90;;
60964;SDS011;46834;51.100;6.886;2022-08-25T04:32:20;7.53;;;1.42;;
60964;SDS011;46834;51.100;6.886;2022-08-25T04:34:46;4.05;;;1.77;;
60964;SDS011;46834;51.100;6.886;2022-08-25T04:37:13;2.05;;;1.67;;
60964;SDS011;46834;51.100;6.886;2022-08-25T04:39:38;2.67;;;1.60;;
60964;SDS011;46834;51.100;6.886;2022-08-25T04:42:04;2.38;;;1.65;;
60964;SDS011;46834;51.100;6.886;2022-08-25T04:44:30;2.60;;;1.40;;
60964;SDS011;46834;51.100;6.886;2022-08-25T04:46:57;3.72;;;1.50;;
60964;SDS011;46834;51.100;6.886;2022-08-25T04:49:24;4.43;;;1.40;;
60964;SDS011;46834;51.100;6.886;2022-08-25T04:51:50;5.15;;;1.60;;
60964;SDS011;46834;51.100;6.886;2022-08-25T04:54:15;2.40;;;1.80;;
60964;SDS011;46834;51.100;6.886;2022-08-25T04:56:45;2.80;;;1.73;;
60964;SDS011;46834;51.100;6.886;2022-08-25T04:59:14;2.38;;;1.50;;
60964;SDS011;46834;51.100;6.886;2022-08-25T05:01:41;2.88;;;1.80;;
60964;SDS011;46834;51.100;6.886;2022-08-25T05:04:10;1.90;;;1.40;;
60964;SDS011;46834;51.100;6.886;2022-08-25T05:06:39;2.00;;;1.58;;
60964;SDS011;46834;51.100;6.886;2022-08-25T05:09:06;1.60;;;1.45;;
60964;SDS011;46834;51.100;6.886;2022-08-25T05:11:32;2.28;;;1.77;;
60964;SDS011;46834;51.100;6.886;2022-08-25T05:13:58;2.15;;;1.40;;
60964;SDS011;46834;51.100;6.886;2022-08-25T05:16:26;2.45;;;1.80;;
60964;SDS011;46834;51.100;6.886;2022-08-25T05:18:52;2.40;;;1.70;;
60964;SDS011;46834;51.100;6.886;2022-08-25T05:21:21;4.18;;;1.80;;
60964;SDS011;46834;51.100;6.886;2022-08-25T05:23:53;2.97;;;1.65;;
60964;SDS011;46834;51.100;6.886;2022-08-25T05:26:24;2.15;;;1.55;;
60964;SDS011;46834;51.100;6.886;2022-08-25T05:28:54;2.50;;;1.35;;
60964;SDS011;46834;51.100;6.886;2022-08-25T05:31:21;2.55;;;1.77;;
60964;SDS011;46834;51.100;6.886;2022-08-25T05:33:48;6.68;;;2.05;;
60964;SDS011;46834;51.100;6.886;2022-08-25T05:36:16;2.63;;;1.95;;
60964;SDS011;46834;51.100;6.886;2022-08-25T05:38:44;2.20;;;1.58;;
60964;SDS011;46834;51.100;6.886;2022-08-25T05:41:11;4.30;;;1.80;;
60964;SDS011;46834;51.100;6.886;2022-08-25T05:43:40;3.08;;;1.73;;
60964;SDS011;46834;51.100;6.886;2022-08-25T05:46:08;4.25;;;1.70;;
60964;SDS011;46834;51.100;6.886;2022-08-25T05:48:36;3.22;;;1.80;;
60964;SDS011;46834;51.100;6.886;2022-08-25T05:51:04;2.25;;;1.80;;
60964;SDS011;46834;51.100;6.886;2022-08-25T05:53:34;2.22;;;1.80;;
60964;SDS011;46834;51.100;6.886;2022-08-25T05:56:01;4.60;;;2.00;;
60964;SDS011;46834;51.100;6.886;2022-08-25T05:58:28;1.73;;;1.58;;
60964;SDS011;46834;51.100;6.886;2022-08-25T06:00:56;3.90;;;1.85;;
60964;SDS011;46834;51.100;6.886;2022-08-25T06:03:44;5.45;;;1.83;;
60964;SDS011;46834;51.100;6.886;2022-08-25T06:06:11;2.22;;;1.60;;
60964;SDS011;46834;51.100;6.886;2022-08-25T06:08:38;3.22;;;1.90;;
60964;SDS011;46834;51.100;6.886;2022-08-25T06:11:04;2.88;;;2.05;;
60964;SDS011;46834;51.100;6.886;2022-08-25T06:13:31;3.85;;;2.20;;
60964;SDS011;46834;51.100;6.886;2022-08-25T06:15:58;3.88;;;1.83;;
60964;SDS011;46834;51.100;6.886;2022-08-25T06:18:24;3.28;;;2.13;;
60964;SDS011;46834;51.100;6.886;2022-08-25T06:20:50;4.95;;;2.13;;
60964;SDS011;46834;51.100;6.886;2022-08-25T06:23:16;3.15;;;2.08;;
60964;SDS011;46834;51.100;6.886;2022-08-25T06:25:51;2.55;;;1.88;;
60964;SDS011;46834;51.100;6.886;2022-08-25T06:28:20;4.13;;;2.40;;
60964;SDS011;46834;51.100;6.886;2022-08-25T06:30:46;5.53;;;2.50;;
60964;SDS011;46834;51.100;6.886;2022-08-25T06:33:12;6.25;;;1.92;;
60964;SDS011;46834;51.100;6.886;2022-08-25T06:35:41;6.35;;;1.92;;
60964;SDS011;46834;51.100;6.886;2022-08-25T06:38:08;4.57;;;2.33;;
60964;SDS011;46834;51.100;6.886;2022-08-25T06:40:35;4.35;;;1.90;;
60964;SDS011;46834;51.100;6.886;2022-08-25T06:43:01;4.78;;;1.85;;
60964;SDS011;46834;51.100;6.886;2022-08-25T06:45:30;3.67;;;2.00;;
60964;SDS011;46834;51.100;6.886;2022-08-25T06:47:56;2.63;;;2.10;;
60964;SDS011;46834;51.100;6.886;2022-08-25T06:50:23;2.78;;;2.00;;
60964;SDS011;46834;51.100;6.886;2022-08-25T06:52:49;2.38;;;1.80;;
60964;SDS011;46834;51.100;6.886;2022-08-25T06:55:15;4.28;;;3.13;;
60964;SDS011;46834;51.100;6.886;2022-08-25T06:57:41;3.08;;;2.60;;
60964;SDS011;46834;51.100;6.886;2022-08-25T07:00:07;3.42;;;2.08;;
60964;SDS011;46834;51.100;6.886;2022-08-25T07:02:35;3.08;;;2.03;;
60964;SDS011;46834;51.100;6.886;2022-08-25T07:05:02;5.07;;;2.97;;
60964;SDS011;46834;51.100;6.886;2022-08-25T07:07:29;5.38;;;2.60;;
60964;SDS011;46834;51.100;6.886;2022-08-25T07:09:55;2.53;;;2.05;;
60964;SDS011;46834;51.100;6.886;2022-08-25T07:12:21;2.60;;;2.00;;
60964;SDS011;46834;51.100;6.886;2022-08-25T07:14:48;3.50;;;2.25;;
60964;SDS011;46834;51.100;6.886;2022-08-25T07:17:14;3.88;;;2.33;;
60964;SDS011;46834;51.100;6.886;2022-08-25T07:19:41;5.40;;;2.20;;
60964;SDS011;46834;51.100;6.886;2022-08-25T07:22:07;2.58;;;1.85;;
60964;SDS011;46834;51.100;6.886;2022-08-25T07:24:32;3.13;;;2.10;;
60964;SDS011;46834;51.100;6.886;2022-08-25T07:26:58;2.15;;;1.95;;
60964;SDS011;46834;51.100;6.886;2022-08-25T07:29:25;3.28;;;1.90;;
60964;SDS011;46834;51.100;6.886;2022-08-25T07:31:53;3.47;;;2.03;;
60964;SDS011;46834;51.100;6.886;2022-08-25T07:34:19;3.70;;;2.03;;
60964;SDS011;46834;51.100;6.886;2022-08-25T07:37:04;3.55;;;1.83;;
60964;SDS011;46834;51.100;6.886;2022-08-25T07:39:30;3.35;;;2.20;;
60964;SDS011;46834;51.100;6.886;2022-08-25T07:41:58;2.75;;;2.30;;
60964;SDS011;46834;51.100;6.886;2022-08-25T07:44:24;2.75;;;2.30;;
60964;SDS011;46834;51.100;6.886;2022-08-25T07:46:51;3.67;;;1.98;;
60964;SDS011;46834;51.100;6.886;2022-08-25T07:49:18;5.35;;;2.38;;
60964;SDS011;46834;51.100;6.886;2022-08-25T07:51:46;3.47;;;2.17;;
60964;SDS011;46834;51.100;6.886;2022-08-25T07:54:11;4.03;;;2.15;;
60964;SDS011;46834;51.100;6.886;2022-08-25T07:56:38;2.78;;;2.00;;
60964;SDS011;46834;51.100;6.886;2022-08-25T07:59:07;3.15;;;2.58;;
60964;SDS011;46834;51.100;6.886;2022-08-25T08:01:34;4.43;;;2.60;;
60964;SDS011;46834;51.100;6.886;2022-08-25T08:04:00;3.22;;;2.50;;
60964;SDS011;46834;51.100;6.886;2022-08-25T08:06:26;5.35;;;2.50;;
60964;SDS011;46834;51.100;6.886;2022-08-25T08:08:52;2.85;;;2.28;;
60964;SDS011;46834;51.100;6.886;2022-08-25T08:13:58;4.93;;;2.35;;
60964;SDS011;46834;51.100;6.886;2022-08-25T08:16:26;4.38;;;2.10;;
60964;SDS011;46834;51.100;6.886;2022-08-25T08:18:54;3.38;;;2.30;;
60964;SDS011;46834;51.100;6.886;2022-08-25T08:21:22;3.33;;;2.38;;
60964;SDS011;46834;51.100;6.886;2022-08-25T08:23:56;3.72;;;2.70;;
60964;SDS011;46834;51.100;6.886;2022-08-25T08:26:23;3.88;;;2.33;;
60964;SDS011;46834;51.100;6.886;2022-08-25T08:28:49;6.00;;;2.20;;
60964;SDS011;46834;51.100;6.886;2022-08-25T08:31:16;3.45;;;2.38;;
60964;SDS011;46834;51.100;6.886;2022-08-25T08:33:48;8.45;;;2.08;;
60964;SDS011;46834;51.100;6.886;2022-08-25T08:36:15;3.17;;;2.33;;
60964;SDS011;46834;51.100;6.886;2022-08-25T08:38:41;2.42;;;2.05;;
60964;SDS011;46834;51.100;6.886;2022-08-25T08:46:57;3.33;;;1.92;;
60964;SDS011;46834;51.100;6.886;2022-08-25T08:52:35;3.08;;;2.75;;
60964;SDS011;46834;51.100;6.886;2022-08-25T08:55:14;4.68;;;2.42;;
60964;SDS011;46834;51.100;6.886;2022-08-25T08:57:51;2.67;;;1.92;;
60964;SDS011;46834;51.100;6.886;2022-08-25T09:00:20;2.60;;;2.15;;
60964;SDS011;46834;51.100;6.886;2022-08-25T09:02:50;2.47;;;2.28;;
60964;SDS011;46834;51.100;6.886;2022-08-25T09:05:28;3.75;;;2.35;;
60964;SDS011;46834;51.100;6.886;2022-08-25T09:08:06;2.85;;;2.42;;
60964;SDS011;46834;51.100;6.886;2022-08-25T09:10:53;3.40;;;2.10;;
60964;SDS011;46834;51.100;6.886;2022-08-25T09:14:08;3.78;;;2.20;;
60964;SDS011;46834;51.100;6.886;2022-08-25T09:16:45;2.25;;;2.05;;
60964;SDS011;46834;51.100;6.886;2022-08-25T09:26:38;5.00;;;2.40;;
60964;SDS011;46834;51.100;6.886;2022-08-25T09:29:19;2.70;;;2.30;;
60964;SDS011;46834;51.100;6.886;2022-08-25T09:31:48;2.78;;;2.20;;
60964;SDS011;46834;51.100;6.886;2022-08-25T09:34:19;2.35;;;1.90;;
60964;SDS011;46834;51.100;6.886;2022-08-25T09:36:52;3.08;;;2.58;;
60964;SDS011;46834;51.100;6.886;2022-08-25T09:39:18;4.15;;;2.38;;
60964;SDS011;46834;51.100;6.886;2022-08-25T09:41:47;2.58;;;2.08;;
60964;SDS011;46834;51.100;6.886;2022-08-25T09:44:21;3.00;;;1.90;;
60964;SDS011;46834;51.100;6.886;2022-08-25T09:47:05;2.72;;;2.00;;
60964;SDS011;46834;51.100;6.886;2022-08-25T09:57:34;2.95;;;2.17;;
60964;SDS011;46834;51.100;6.886;2022-08-25T10:08:23;1.90;;;1.80;;
60964;SDS011;46834;51.100;6.886;2022-08-25T10:11:09;2.33;;;1.90;;
60964;SDS011;46834;51.100;6.886;2022-08-25T10:13:46;2.55;;;2.35;;
60964;SDS011;46834;51.100;6.886;2022-08-25T10:16:25;3.15;;;1.90;;
60964;SDS011;46834;51.100;6.886;2022-08-25T10:22:03;2.63;;;2.17;;
60964;SDS011;46834;51.100;6.886;2022-08-25T10:24:31;2.20;;;1.60;;
60964;SDS011;46834;51.100;6.886;2022-08-25T10:29:54;2.83;;;2.17;;
60964;SDS011;46834;51.100;6.886;2022-08-25T10:35:23;3.92;;;1.90;;
60964;SDS011;46834;51.100;6.886;2022-08-25T10:38:25;2.10;;;1.90;;
60964;SDS011;46834;51.100;6.886;2022-08-25T10:41:37;2.40;;;1.90;;
60964;SDS011;46834;51.100;6.886;2022-08-25T10:50:45;1.70;;;1.42;;
60964;SDS011;46834;51.100;6.886;2022-08-25T10:56:17;5.90;;;1.40;;
60964;SDS011;46834;51.100;6.886;2022-08-25T10:58:58;2.03;;;1.80;;
60964;SDS011;46834;51.100;6.886;2022-08-25T11:04:46;4.55;;;1.85;;
60964;SDS011;46834;51.100;6.886;2022-08-25T11:07:40;1.60;;;1.50;;
60964;SDS011;46834;51.100;6.886;2022-08-25T11:10:14;5.28;;;2.10;;
60964;SDS011;46834;51.100;6.886;2022-08-25T11:12:51;4.28;;;2.08;;
60964;SDS011;46834;51.100;6.886;2022-08-25T11:15:30;3.78;;;2.03;;
60964;SDS011;46834;51.100;6.886;2022-08-25T11:18:13;3.10;;;2.25;;
60964;SDS011;46834;51.100;6.886;2022-08-25T11:20:41;2.45;;;1.98;;
60964;SDS011;46834;51.100;6.886;2022-08-25T11:23:20;2.28;;;1.75;;
60964;SDS011;46834;51.100;6.886;2022-08-25T11:26:13;2.08;;;1.88;;
60964;SDS011;46834;51.100;6.886;2022-08-25T11:28:55;3.15;;;1.77;;
60964;SDS011;46834;51.100;6.886;2022-08-25T11:31:29;2.17;;;1.60;;
60964;SDS011;46834;51.100;6.886;2022-08-25T11:34:02;2.25;;;1.70;;
60964;SDS011;46834;51.100;6.886;2022-08-25T11:36:33;1.90;;;1.70;;
60964;SDS011;46834;51.100;6.886;2022-08-25T11:39:10;2.83;;;2.10;;
60964;SDS011;46834;51.100;6.886;2022-08-25T11:48:16;2.15;;;1.73;;
60964;SDS011;46834;51.100;6.886;2022-08-25T11:51:27;2.22;;;1.80;;
60964;SDS011;46834;51.100;6.886;2022-08-25T11:54:04;2.10;;;1.90;;
60964;SDS011;46834;51.100;6.886;2022-08-25T11:56:50;2.88;;;1.80;;
60964;SDS011;46834;51.100;6.886;2022-08-25T12:10:25;2.58;;;1.83;;
60964;SDS011;46834;51.100;6.886;2022-08-25T12:13:41;2.22;;;1.90;;
60964;SDS011;46834;51.100;6.886;2022-08-25T12:27:11;4.57;;;1.73;;
60964;SDS011;46834;51.100;6.886;2022-08-25T12:35:37;1.80;;;1.55;;
60964;SDS011;46834;51.100;6.886;2022-08-25T12:38:37;2.20;;;2.00;;
60964;SDS011;46834;51.100;6.886;2022-08-25T12:41:12;2.83;;;1.90;;
60964;SDS011;46834;51.100;6.886;2022-08-25T12:43:45;2.25;;;2.05;;
60964;SDS011;46834;51.100;6.886;2022-08-25T12:48:55;2.47;;;1.88;;
60964;SDS011;46834;51.100;6.886;2022-08-25T12:57:18;3.58;;;2.40;;
60964;SDS011;46834;51.100;6.886;2022-08-25T13:00:44;2.38;;;1.98;;
60964;SDS011;46834;51.100;6.886;2022-08-25T13:03:41;3.65;;;1.73;;
60964;SDS011;46834;51.100;6.886;2022-08-25T13:15:13;3.47;;;1.75;;
60964;SDS011;46834;51.100;6.886;2022-08-25T13:17:51;4.00;;;1.80;;
60964;SDS011;46834;51.100;6.886;2022-08-25T13:20:24;2.83;;;1.90;;
60964;SDS011;46834;51.100;6.886;2022-08-25T13:22:55;2.08;;;1.70;;
60964;SDS011;46834;51.100;6.886;2022-08-25T13:25:26;2.35;;;1.75;;
60964;SDS011;46834;51.100;6.886;2022-08-25T13:27:55;4.20;;;1.90;;
60964;SDS011;46834;51.100;6.886;2022-08-25T13:30:28;2.17;;;1.98;;
60964;SDS011;46834;51.100;6.886;2022-08-25T13:33:14;4.20;;;2.20;;
60964;SDS011;46834;51.100;6.886;2022-08-25T13:35:50;3.05;;;2.05;;
60964;SDS011;46834;51.100;6.886;2022-08-25T13:38:40;2.08;;;1.75;;
60964;SDS011;46834;51.100;6.886;2022-08-25T13:41:09;1.80;;;1.70;;
60964;SDS011;46834;51.100;6.886;2022-08-25T13:43:42;2.92;;;2.17;;
60964;SDS011;46834;51.100;6.886;2022-08-25T13:46:08;2.33;;;2.13;;
60964;SDS011;46834;51.100;6.886;2022-08-25T13:48:38;3.28;;;1.98;;
60964;SDS011;46834;51.100;6.886;2022-08-25T13:54:04;5.07;;;2.83;;
60964;SDS011;46834;51.100;6.886;2022-08-25T13:56:39;3.40;;;2.60;;
60964;SDS011;46834;51.100;6.886;2022-08-25T13:59:18;2.05;;;1.85;;
60964;SDS011;46834;51.100;6.886;2022-08-25T14:02:01;2.25;;;2.05;;
60964;SDS011;46834;51.100;6.886;2022-08-25T14:04:43;2.95;;;2.00;;
60964;SDS011;46834;51.100;6.886;2022-08-25T14:17:41;3.05;;;1.88;;
60964;SDS011;46834;51.100;6.886;2022-08-25T14:20:26;2.08;;;1.88;;
60964;SDS011;46834;51.100;6.886;2022-08-25T14:22:56;4.38;;;1.88;;
60964;SDS011;46834;51.100;6.886;2022-08-25T14:25:28;3.25;;;1.92;;
60964;SDS011;46834;51.100;6.886;2022-08-25T14:27:59;1.65;;;1.55;;
60964;SDS011;46834;51.100;6.886;2022-08-25T14:30:29;2.08;;;1.88;;
60964;SDS011;46834;51.100;6.886;2022-08-25T14:32:58;2.95;;;1.77;;
60964;SDS011;46834;51.100;6.886;2022-08-25T14:35:27;2.95;;;2.10;;
60964;SDS011;46834;51.100;6.886;2022-08-25T14:37:54;3.13;;;2.13;;
60964;SDS011;46834;51.100;6.886;2022-08-25T14:40:20;4.68;;;2.00;;
60964;SDS011;46834;51.100;6.886;2022-08-25T14:42:46;2.25;;;2.05;;
60964;SDS011;46834;51.100;6.886;2022-08-25T14:45:13;2.65;;;2.20;;
60964;SDS011;46834;51.100;6.886;2022-08-25T14:47:40;6.95;;;1.98;;
60964;SDS011;46834;51.100;6.886;2022-08-25T14:50:07;2.08;;;1.70;;
60964;SDS011;46834;51.100;6.886;2022-08-25T14:52:35;1.98;;;1.65;;
60964;SDS011;46834;51.100;6.886;2022-08-25T14:55:01;3.45;;;1.60;;
60964;SDS011;46834;51.100;6.886;2022-08-25T14:57:27;2.15;;;1.85;;
60964;SDS011;46834;51.100;6.886;2022-08-25T14:59:53;2.13;;;1.92;;
60964;SDS011;46834;51.100;6.886;2022-08-25T15:02:19;2.83;;;2.03;;
60964;SDS011;46834;51.100;6.886;2022-08-25T15:04:51;2.00;;;1.80;;
60964;SDS011;46834;51.100;6.886;2022-08-25T15:07:21;4.03;;;1.77;;
60964;SDS011;46834;51.100;6.886;2022-08-25T15:10:07;2.10;;;1.73;;
60964;SDS011;46834;51.100;6.886;2022-08-25T15:12:34;1.70;;;1.58;;
60964;SDS011;46834;51.100;6.886;2022-08-25T15:15:00;3.33;;;2.03;;
60964;SDS011;46834;51.100;6.886;2022-08-25T15:17:26;3.25;;;1.90;;
60964;SDS011;46834;51.100;6.886;2022-08-25T15:19:53;2.28;;;1.63;;
60964;SDS011;46834;51.100;6.886;2022-08-25T15:22:18;1.60;;;1.50;;
60964;SDS011;46834;51.100;6.886;2022-08-25T15:24:44;1.70;;;1.60;;
60964;SDS011;46834;51.100;6.886;2022-08-25T15:27:10;2.60;;;2.05;;
60964;SDS011;46834;51.100;6.886;2022-08-25T15:29:39;1.85;;;1.52;;
60964;SDS011;46834;51.100;6.886;2022-08-25T15:32:05;1.73;;;1.60;;
60964;SDS011;46834;51.100;6.886;2022-08-25T15:34:33;1.90;;;1.60;;
60964;SDS011;46834;51.100;6.886;2022-08-25T15:37:05;2.55;;;1.98;;
60964;SDS011;46834;51.100;6.886;2022-08-25T15:39:37;1.75;;;1.65;;
60964;SDS011;46834;51.100;6.886;2022-08-25T15:42:05;1.77;;;1.60;;
60964;SDS011;46834;51.100;6.886;2022-08-25T15:44:33;1.80;;;1.70;;
60964;SDS011;46834;51.100;6.886;2022-08-25T15:46:59;2.97;;;1.85;;
60964;SDS011;46834;51.100;6.886;2022-08-25T15:49:25;3.92;;;2.00;;
60964;SDS011;46834;51.100;6.886;2022-08-25T15:51:53;2.50;;;1.88;;
60964;SDS011;46834;51.100;6.886;2022-08-25T15:54:19;2.33;;;1.92;;
60964;SDS011;46834;51.100;6.886;2022-08-25T15:56:47;2.05;;;1.52;;
60964;SDS011;46834;51.100;6.886;2022-08-25T15:59:13;1.98;;;1.60;;
60964;SDS011;46834;51.100;6.886;2022-08-25T16:01:39;2.80;;;1.90;;
60964;SDS011;46834;51.100;6.886;2022-08-25T16:04:07;2.50;;;1.90;;
60964;SDS011;46834;51.100;6.886;2022-08-25T16:06:33;1.88;;;1.70;;
60964;SDS011;46834;51.100;6.886;2022-08-25T16:08:59;1.80;;;1.70;;
60964;SDS011;46834;51.100;6.886;2022-08-25T16:11:26;3.78;;;2.10;;
60964;SDS011;46834;51.100;6.886;2022-08-25T16:13:55;1.80;;;1.70;;
60964;SDS011;46834;51.100;6.886;2022-08-25T16:16:22;2.67;;;1.80;;
60964;SDS011;46834;51.100;6.886;2022-08-25T16:18:51;2.55;;;1.90;;
60964;SDS011;46834;51.100;6.886;2022-08-25T16:21:20;3.95;;;2.05;;
60964;SDS011;46834;51.100;6.886;2022-08-25T16:23:51;4.07;;;2.42;;
60964;SDS011;46834;51.100;6.886;2022-08-25T16:26:19;1.80;;;1.50;;
60964;SDS011;46834;51.100;6.886;2022-08-25T16:28:45;2.50;;;2.05;;
60964;SDS011;46834;51.100;6.886;2022-08-25T16:31:12;2.53;;;1.80;;
60964;SDS011;46834;51.100;6.886;2022-08-25T16:33:39;2.15;;;1.83;;
60964;SDS011;46834;51.100;6.886;2022-08-25T16:36:10;2.42;;;2.00;;
60964;SDS011;46834;51.100;6.886;2022-08-25T16:38:48;2.45;;;1.90;;
60964;SDS011;46834;51.100;6.886;2022-08-25T16:41:17;2.90;;;2.15;;
60964;SDS011;46834;51.100;6.886;2022-08-25T16:43:57;2.05;;;1.85;;
60964;SDS011;46834;51.100;6.886;2022-08-25T16:46:26;1.90;;;1.70;;
60964;SDS011;46834;51.100;6.886;2022-08-25T16:48:52;1.70;;;1.60;;
60964;SDS011;46834;51.100;6.886;2022-08-25T16:51:19;2.88;;;2.00;;
60964;SDS011;46834;51.100;6.886;2022-08-25T16:53:46;2.40;;;1.85;;
60964;SDS011;46834;51.100;6.886;2022-08-25T16:56:32;2.22;;;1.98;;
60964;SDS011;46834;51.100;6.886;2022-08-25T16:59:00;2.50;;;1.90;;
60964;SDS011;46834;51.100;6.886;2022-08-25T17:01:28;1.95;;;1.67;;
60964;SDS011;46834;51.100;6.886;2022-08-25T17:03:58;2.08;;;1.88;;
60964;SDS011;46834;51.100;6.886;2022-08-25T17:06:24;2.60;;;1.88;;
60964;SDS011;46834;51.100;6.886;2022-08-25T17:08:52;1.90;;;1.67;;
60964;SDS011;46834;51.100;6.886;2022-08-25T17:11:23;1.73;;;1.63;;